Time;durP1;ratioP1;P1;durP2;ratioP2;P2;SDS_P1;SDS_P2;PMS_P1;PMS_P2;Temp;Humidity;BMP_temperature;BMP_pressure;BME280_temperature;BME280_humidity;BME280_pressure;Samples;Min_cycle;Max_cycle;Signal;HPM_P1;HPM_P2
2022/05/06 00:00:07;;;;;;;3.38;2.10;;;19.20;60.00;;;;;;5127486;27;45381;-88
2022/05/06 00:02:34;;;;;;;4.57;2.95;;;19.20;59.90;;;;;;5108776;27;45260;-88
2022/05/06 00:05:02;;;;;;;4.75;3.00;;;19.20;60.00;;;;;;5117482;27;45224;-88
2022/05/06 00:07:29;;;;;;;3.53;2.72;;;19.20;60.00;;;;;;5120888;27;46972;-88
2022/05/06 00:09:56;;;;;;;3.80;2.75;;;19.20;60.00;;;;;;5111100;27;45296;-88
2022/05/06 00:12:23;;;;;;;3.45;2.60;;;19.20;60.00;;;;;;5112350;27;45228;-88
2022/05/06 00:14:50;;;;;;;4.47;2.47;;;19.20;60.00;;;;;;5128799;27;45379;-88
2022/05/06 00:17:18;;;;;;;3.70;2.65;;;19.20;60.00;;;;;;5127473;27;46287;-88
2022/05/06 00:19:45;;;;;;;4.93;2.70;;;19.20;60.00;;;;;;5121645;27;45255;-88
2022/05/06 00:22:13;;;;;;;5.10;2.42;;;19.20;60.00;;;;;;5126922;27;45265;-88
2022/05/06 00:24:40;;;;;;;5.40;2.90;;;19.20;60.00;;;;;;5123429;27;45325;-88
2022/05/06 00:27:07;;;;;;;4.22;2.55;;;19.20;60.00;;;;;;5128725;27;46295;-88
2022/05/06 00:29:34;;;;;;;5.00;2.58;;;19.20;60.00;;;;;;5125277;27;45320;-88
2022/05/06 00:32:02;;;;;;;3.15;2.60;;;19.20;60.00;;;;;;5125663;27;45254;-88
2022/05/06 00:34:29;;;;;;;4.28;2.80;;;19.20;59.90;;;;;;5128733;27;45396;-88
2022/05/06 00:36:56;;;;;;;4.40;2.78;;;19.20;59.90;;;;;;5126826;27;46373;-88
2022/05/06 00:39:24;;;;;;;3.40;2.50;;;19.20;60.00;;;;;;5123575;27;45595;-88
2022/05/06 00:41:54;;;;;;;3.85;2.72;;;19.20;59.90;;;;;;5127916;27;45211;-88
2022/05/06 00:44:22;;;;;;;3.45;2.55;;;19.20;59.90;;;;;;5119627;27;45218;-88
2022/05/06 00:46:51;;;;;;;4.45;2.80;;;19.20;59.90;;;;;;5124368;27;48089;-89
2022/05/06 00:49:18;;;;;;;3.53;2.58;;;19.20;59.90;;;;;;5138149;27;46291;-89
2022/05/06 00:51:45;;;;;;;4.22;2.72;;;19.20;59.90;;;;;;5124339;27;45332;-88
2022/05/06 00:54:13;;;;;;;3.85;2.63;;;19.20;59.90;;;;;;5129461;27;45259;-89
2022/05/06 00:56:41;;;;;;;3.42;2.50;;;19.20;59.90;;;;;;5125449;27;45491;-88
2022/05/06 00:59:08;;;;;;;3.78;2.80;;;19.20;60.00;;;;;;5128342;27;45262;-89
2022/05/06 01:01:36;;;;;;;5.50;2.92;;;19.10;59.90;;;;;;5129014;27;45320;-89
2022/05/06 01:04:06;;;;;;;3.65;2.53;;;19.20;60.00;;;;;;5120563;27;45518;-89
2022/05/06 01:06:34;;;;;;;3.78;2.63;;;19.10;59.80;;;;;;5119402;27;46962;-88
2022/05/06 01:09:01;;;;;;;4.10;2.60;;;19.10;60.10;;;;;;5109954;27;45653;-88
2022/05/06 01:11:28;;;;;;;3.60;2.50;;;19.20;59.90;;;;;;5126157;27;45126;-89
2022/05/06 01:13:57;;;;;;;3.72;2.90;;;19.20;59.80;;;;;;5126709;27;45228;-89
2022/05/06 01:16:24;;;;;;;4.47;2.88;;;19.20;59.80;;;;;;5128286;27;45321;-89
2022/05/06 01:18:52;;;;;;;4.43;2.90;;;19.20;59.90;;;;;;5128190;27;45343;-89
2022/05/06 01:21:24;;;;;;;2.65;2.25;;;19.10;59.80;;;;;;5128987;27;45303;-89
2022/05/06 01:23:52;;;;;;;2.85;2.40;;;19.10;59.80;;;;;;5123640;27;45224;-89
2022/05/06 01:26:19;;;;;;;5.20;3.20;;;19.10;59.80;;;;;;5127667;27;46398;-89
2022/05/06 01:28:47;;;;;;;3.75;2.78;;;19.10;59.90;;;;;;5124542;27;45250;-89
2022/05/06 01:31:22;;;;;;;4.20;2.95;;;19.10;59.80;;;;;;5124968;27;45286;-89
2022/05/06 01:33:54;;;;;;;4.38;2.95;;;19.10;59.80;;;;;;5127138;27;45507;-89
2022/05/06 01:36:24;;;;;;;5.45;2.65;;;19.20;60.00;;;;;;5117924;27;47418;-89
2022/05/06 01:38:56;;;;;;;3.72;2.90;;;19.20;60.00;;;;;;5126098;27;46041;-88
2022/05/06 01:41:24;;;;;;;3.85;3.10;;;19.20;60.00;;;;;;5126828;27;45246;-89
2022/05/06 01:43:54;;;;;;;4.68;3.13;;;19.20;60.00;;;;;;5128735;27;45460;-89
2022/05/06 01:46:26;;;;;;;4.47;3.20;;;19.20;60.00;;;;;;5119934;27;47619;-89
2022/05/06 01:48:53;;;;;;;4.10;2.97;;;19.20;59.90;;;;;;5124597;27;45313;-89
2022/05/06 01:51:23;;;;;;;3.90;3.20;;;19.20;60.30;;;;;;5123286;27;45228;-88
2022/05/06 01:53:50;;;;;;;4.68;3.08;;;19.10;59.80;;;;;;5128134;27;45439;-89
2022/05/06 01:56:20;;;;;;;5.05;3.03;;;19.20;61.00;;;;;;5116796;27;47578;-88
2022/05/06 01:58:48;;;;;;;5.30;3.40;;;19.10;60.00;;;;;;5127723;27;45565;-89
2022/05/06 02:01:15;;;;;;;4.65;3.45;;;19.10;60.00;;;;;;5127410;27;45607;-89
2022/05/06 02:06:27;;;;;;;4.43;3.25;;;19.10;60.00;;;;;;5120186;27;45738;-89
2022/05/06 02:08:54;;;;;;;5.28;3.50;;;19.10;59.90;;;;;;5121872;27;45749;-89
2022/05/06 02:11:22;;;;;;;4.93;3.55;;;19.10;60.00;;;;;;5122925;27;45209;-89
2022/05/06 02:13:49;;;;;;;5.97;3.95;;;19.10;59.90;;;;;;5128622;27;45435;-88
2022/05/06 02:16:16;;;;;;;6.03;4.10;;;19.10;59.90;;;;;;5129326;27;47369;-89
2022/05/06 02:18:43;;;;;;;4.70;3.30;;;19.10;59.80;;;;;;5127532;27;45121;-89
2022/05/06 02:21:10;;;;;;;4.57;3.40;;;19.10;59.80;;;;;;5125213;27;45298;-89
2022/05/06 02:23:37;;;;;;;4.70;3.33;;;19.20;59.90;;;;;;5123486;27;45343;-89
2022/05/06 02:26:04;;;;;;;5.90;4.10;;;19.10;59.80;;;;;;5122203;27;47124;-89
2022/05/06 02:28:32;;;;;;;6.22;4.40;;;19.10;59.90;;;;;;5125512;27;45262;-89
2022/05/06 02:33:44;;;;;;;5.28;3.65;;;19.20;60.00;;;;;;5123269;27;45337;-88
2022/05/06 02:36:12;;;;;;;6.18;4.43;;;19.20;60.00;;;;;;5124521;27;47309;-89
2022/05/06 02:38:38;;;;;;;6.28;3.90;;;19.20;59.90;;;;;;5128574;27;46352;-89
2022/05/06 02:41:06;;;;;;;6.15;4.28;;;19.20;59.90;;;;;;5128022;27;45392;-89
2022/05/06 02:43:34;;;;;;;6.80;4.53;;;19.10;59.70;;;;;;5127246;27;45334;-89
2022/05/06 02:46:01;;;;;;;6.13;4.32;;;19.20;59.90;;;;;;5127608;27;47391;-89
2022/05/06 02:48:28;;;;;;;7.45;4.28;;;19.20;59.90;;;;;;5127665;27;45475;-89
2022/05/06 02:50:55;;;;;;;5.50;4.00;;;19.20;60.00;;;;;;5128219;27;45349;-89
2022/05/06 02:53:22;;;;;;;6.30;4.53;;;19.10;59.70;;;;;;5127799;27;45368;-89
2022/05/06 02:55:49;;;;;;;6.10;4.22;;;19.20;59.80;;;;;;5122754;27;45674;-89
2022/05/06 02:58:16;;;;;;;6.30;4.28;;;19.10;59.70;;;;;;5127980;27;45127;-88
2022/05/06 03:00:44;;;;;;;4.38;3.40;;;19.10;59.70;;;;;;5122559;27;45253;-89
2022/05/06 03:03:11;;;;;;;5.75;3.92;;;19.10;59.70;;;;;;5119749;27;45566;-89
2022/05/06 03:05:38;;;;;;;5.75;3.95;;;19.10;59.60;;;;;;5129709;27;47779;-89
2022/05/06 03:08:05;;;;;;;5.88;4.25;;;19.10;59.60;;;;;;5125798;27;46283;-89
2022/05/06 03:10:32;;;;;;;5.07;3.42;;;19.10;59.50;;;;;;5124815;27;45222;-89
2022/05/06 03:12:59;;;;;;;6.05;3.72;;;19.10;59.50;;;;;;5130711;27;45429;-88
2022/05/06 03:15:26;;;;;;;4.78;3.50;;;19.10;59.40;;;;;;5129163;27;46368;-89
2022/05/06 03:17:56;;;;;;;5.53;3.90;;;19.10;59.30;;;;;;5129809;27;46042;-89
2022/05/06 03:20:22;;;;;;;4.68;3.53;;;19.10;59.10;;;;;;5122102;27;45268;-89
2022/05/06 03:22:50;;;;;;;5.57;3.88;;;19.10;59.10;;;;;;5125334;27;45569;-89
2022/05/06 03:25:17;;;;;;;5.70;3.50;;;19.20;59.20;;;;;;5129116;27;46349;-89
2022/05/06 03:30:30;;;;;;;5.03;3.60;;;19.20;59.10;;;;;;5119246;27;45226;-89
2022/05/06 03:32:59;;;;;;;6.70;3.85;;;19.10;58.90;;;;;;5125532;27;45418;-89
2022/05/06 03:35:27;;;;;;;4.60;3.80;;;19.20;59.10;;;;;;5127389;27;45446;-89
2022/05/06 03:37:54;;;;;;;5.97;4.22;;;19.20;59.00;;;;;;5122795;27;45427;-89
2022/05/06 03:40:21;;;;;;;4.95;4.05;;;19.20;59.10;;;;;;5126676;27;46271;-89
2022/05/06 03:42:48;;;;;;;4.82;3.78;;;19.10;59.00;;;;;;5125846;27;45307;-89
2022/05/06 03:45:14;;;;;;;6.05;3.88;;;19.10;59.20;;;;;;5130005;27;47084;-89
2022/05/06 03:47:41;;;;;;;4.70;3.75;;;19.10;59.20;;;;;;5124344;27;45915;-88
2022/05/06 03:52:55;;;;;;;5.25;4.18;;;19.10;59.40;;;;;;5110712;27;45191;-88
2022/05/06 03:55:22;;;;;;;5.28;4.05;;;19.10;59.40;;;;;;5116836;27;46280;-87
2022/05/06 03:57:49;;;;;;;4.95;3.83;;;19.10;59.40;;;;;;5125212;27;45336;-88
2022/05/06 04:00:17;;;;;;;5.97;4.25;;;19.10;59.40;;;;;;5127805;27;45404;-89
2022/05/06 04:02:44;;;;;;;5.20;4.25;;;19.10;59.50;;;;;;5123369;27;45358;-89
2022/05/06 04:05:12;;;;;;;5.10;3.85;;;19.10;59.40;;;;;;5129474;27;47308;-88
2022/05/06 04:07:40;;;;;;;5.63;4.25;;;19.10;59.40;;;;;;5129645;27;45330;-87
2022/05/06 04:10:07;;;;;;;6.28;4.28;;;19.10;59.20;;;;;;5122476;27;46089;-90
2022/05/06 04:12:34;;;;;;;7.60;4.60;;;19.10;59.20;;;;;;5109552;27;45161;-89
2022/05/06 04:15:01;;;;;;;6.75;4.28;;;19.10;59.20;;;;;;5109134;27;47172;-89
2022/05/06 04:17:28;;;;;;;7.18;4.68;;;19.10;59.10;;;;;;5124775;27;45490;-89
2022/05/06 04:25:28;;;;;;;8.02;5.07;;;19.10;60.10;;;;;;5124293;27;45862;-88
2022/05/06 04:27:54;;;;;;;6.78;4.40;;;19.10;60.50;;;;;;5128304;27;45313;-90
2022/05/06 04:30:21;;;;;;;7.70;5.50;;;19.20;58.80;;;;;;5127251;27;45210;-89
2022/05/06 04:32:48;;;;;;;7.32;4.68;;;19.10;57.20;;;;;;5118835;27;45366;-89
2022/05/06 04:35:15;;;;;;;9.23;6.30;;;19.10;56.80;;;;;;5125018;27;47846;-90
2022/05/06 04:37:44;;;;;;;8.38;5.45;;;19.10;56.60;;;;;;5127715;27;45220;-89
2022/05/06 04:40:11;;;;;;;8.70;6.07;;;19.10;56.20;;;;;;5119769;27;45269;-89
2022/05/06 04:42:39;;;;;;;9.23;6.68;;;19.10;55.80;;;;;;5117445;27;45415;-90
2022/05/06 04:45:07;;;;;;;8.57;6.18;;;19.00;55.80;;;;;;5114322;27;46183;-88
2022/05/06 04:47:34;;;;;;;8.82;6.50;;;19.00;57.20;;;;;;5121294;27;45152;-89
2022/05/06 04:50:01;;;;;;;7.45;5.32;;;19.10;57.80;;;;;;5119252;27;45373;-87
2022/05/06 04:52:28;;;;;;;7.88;5.50;;;19.10;57.50;;;;;;5122274;27;45378;-87
2022/05/06 04:54:56;;;;;;;8.68;5.03;;;19.10;58.10;;;;;;5121066;27;48304;-85
2022/05/06 04:57:23;;;;;;;7.40;4.78;;;19.10;58.50;;;;;;5125603;27;45206;-85
2022/05/06 04:59:50;;;;;;;5.70;4.53;;;19.10;59.30;;;;;;5120816;27;45452;-86
2022/05/06 05:02:17;;;;;;;7.10;4.57;;;19.10;59.20;;;;;;5119507;27;45412;-86
2022/05/06 05:04:44;;;;;;;8.02;4.55;;;19.10;59.40;;;;;;5117063;27;47019;-86
2022/05/06 05:07:11;;;;;;;6.13;4.70;;;19.20;59.70;;;;;;5118382;27;45380;-86
2022/05/06 05:09:39;;;;;;;7.63;5.03;;;19.10;59.80;;;;;;5116061;27;45450;-85
2022/05/06 05:12:08;;;;;;;6.65;4.78;;;19.10;59.80;;;;;;5128302;27;45313;-86
2022/05/06 05:14:36;;;;;;;6.40;4.57;;;19.20;60.00;;;;;;5122484;27;45779;-85
2022/05/06 05:17:03;;;;;;;7.40;5.00;;;19.20;60.10;;;;;;5127520;27;45286;-85
2022/05/06 05:19:30;;;;;;;6.03;4.57;;;19.20;60.10;;;;;;5125445;27;45294;-86
2022/05/06 05:21:57;;;;;;;6.72;5.03;;;19.20;60.30;;;;;;5123887;27;45283;-86
2022/05/06 05:24:24;;;;;;;6.90;4.53;;;19.10;60.30;;;;;;5121140;27;45641;-84
2022/05/06 05:26:51;;;;;;;8.05;4.70;;;19.20;60.50;;;;;;5120520;27;45604;-87
2022/05/06 05:29:19;;;;;;;6.95;4.90;;;19.20;60.60;;;;;;5120260;27;45383;-85
2022/05/06 05:31:46;;;;;;;6.55;4.70;;;19.20;60.60;;;;;;5121414;27;45488;-87
2022/05/06 05:34:12;;;;;;;8.50;5.95;;;19.10;60.50;;;;;;5118605;27;47022;-84
2022/05/06 05:36:40;;;;;;;6.13;4.53;;;19.10;60.60;;;;;;5128338;27;45380;-86
2022/05/06 05:39:07;;;;;;;7.65;5.13;;;19.20;60.80;;;;;;5125057;27;45538;-86
2022/05/06 05:41:33;;;;;;;8.60;4.97;;;19.20;60.80;;;;;;5118827;27;46327;-85
2022/05/06 05:49:32;;;;;;;7.95;4.97;;;19.20;61.10;;;;;;5122983;27;45284;-86
2022/05/06 05:51:59;;;;;;;6.50;4.82;;;19.20;61.20;;;;;;5130169;27;45177;-87
2022/05/06 05:54:26;;;;;;;6.07;4.70;;;19.20;61.20;;;;;;5130624;27;45546;-87
2022/05/06 05:56:54;;;;;;;7.75;4.97;;;19.20;61.30;;;;;;5121294;27;45314;-87
2022/05/06 05:59:21;;;;;;;6.18;4.78;;;19.20;61.30;;;;;;5116419;27;45408;-86
2022/05/06 06:01:49;;;;;;;7.60;5.50;;;19.20;61.40;;;;;;5122709;27;45348;-87
2022/05/06 06:04:16;;;;;;;8.00;5.40;;;19.20;61.60;;;;;;5129166;27;45364;-87
2022/05/06 06:06:43;;;;;;;7.00;5.15;;;19.20;62.00;;;;;;5125624;27;45767;-85
2022/05/06 06:09:10;;;;;;;6.03;4.82;;;19.20;61.80;;;;;;5123939;27;45331;-87
2022/05/06 06:11:36;;;;;;;6.88;5.13;;;19.20;62.10;;;;;;5124170;27;45380;-86
2022/05/06 06:14:03;;;;;;;6.80;4.68;;;19.20;62.00;;;;;;5129017;27;45354;-86
2022/05/06 06:16:30;;;;;;;6.85;4.88;;;19.20;61.90;;;;;;5130900;27;45170;-86
2022/05/06 06:18:58;;;;;;;6.57;4.38;;;19.20;62.00;;;;;;5129667;27;45314;-86
2022/05/06 06:21:26;;;;;;;7.53;5.05;;;19.20;62.10;;;;;;5127880;27;45460;-86
2022/05/06 06:23:53;;;;;;;7.35;4.95;;;19.20;62.10;;;;;;5130281;27;47193;-86
2022/05/06 06:26:20;;;;;;;7.65;5.38;;;19.20;62.10;;;;;;5122426;27;45201;-86
2022/05/06 06:28:47;;;;;;;7.28;5.05;;;19.30;62.20;;;;;;5126679;27;45229;-85
2022/05/06 06:31:13;;;;;;;6.97;4.68;;;19.20;62.10;;;;;;5129928;27;45521;-85
2022/05/06 06:33:40;;;;;;;7.40;5.05;;;19.20;62.10;;;;;;5129631;27;46533;-86
2022/05/06 06:36:09;;;;;;;7.70;5.25;;;19.20;62.20;;;;;;5124643;27;45253;-85
2022/05/06 06:38:36;;;;;;;6.60;5.03;;;19.20;62.30;;;;;;5116630;27;45351;-86
2022/05/06 06:41:03;;;;;;;8.10;5.03;;;19.20;62.50;;;;;;5110425;27;45307;-86
2022/05/06 06:43:30;;;;;;;7.63;4.80;;;19.20;62.70;;;;;;5123732;27;46578;-86
2022/05/06 06:45:57;;;;;;;8.50;5.20;;;19.20;62.60;;;;;;5126422;27;45125;-85
2022/05/06 06:48:24;;;;;;;7.57;5.22;;;19.20;62.70;;;;;;5126798;27;45337;-86
2022/05/06 06:50:52;;;;;;;6.82;4.97;;;19.20;62.70;;;;;;5126379;27;45768;-86
2022/05/06 06:53:21;;;;;;;5.80;4.30;;;19.20;62.80;;;;;;5119598;27;45397;-87
2022/05/06 06:55:47;;;;;;;7.90;5.28;;;19.20;62.90;;;;;;5117666;27;45317;-86
2022/05/06 06:58:14;;;;;;;7.07;4.80;;;19.20;62.90;;;;;;5117923;27;45290;-86
2022/05/06 07:00:43;;;;;;;9.57;5.63;;;19.20;63.20;;;;;;5127338;27;45570;-84
2022/05/06 07:03:10;;;;;;;10.93;5.30;;;19.20;63.30;;;;;;5126590;27;47205;-79
2022/05/06 07:05:36;;;;;;;17.88;5.13;;;19.20;63.60;;;;;;5121216;27;45346;-82
2022/05/06 07:13:34;;;;;;;6.88;4.57;;;19.20;63.10;;;;;;5125344;27;45826;-82
2022/05/06 07:16:01;;;;;;;12.20;4.00;;;19.20;62.90;;;;;;5119309;27;45155;-82
2022/05/06 07:18:28;;;;;;;7.63;4.45;;;19.20;62.70;;;;;;5127189;27;45363;-82
2022/05/06 07:20:55;;;;;;;6.68;4.10;;;19.20;62.70;;;;;;5130039;27;45292;-82
2022/05/06 07:23:23;;;;;;;6.57;4.05;;;19.20;62.70;;;;;;5125209;27;45619;-82
2022/05/06 07:25:51;;;;;;;9.68;4.72;;;19.20;63.00;;;;;;5126221;27;46480;-81
2022/05/06 07:28:19;;;;;;;12.45;4.63;;;19.20;63.30;;;;;;5117376;27;45205;-83
2022/05/06 07:30:45;;;;;;;8.50;4.70;;;19.20;64.10;;;;;;5120196;27;45332;-83
2022/05/06 07:33:12;;;;;;;8.30;4.80;;;19.30;63.90;;;;;;5127472;27;47069;-83
2022/05/06 07:35:39;;;;;;;7.70;4.47;;;19.20;63.80;;;;;;5129008;27;45099;-83
2022/05/06 07:38:06;;;;;;;7.45;4.55;;;19.30;63.80;;;;;;5124637;27;45166;-82
2022/05/06 07:40:34;;;;;;;7.93;5.45;;;19.30;63.90;;;;;;5127383;27;45508;-82
2022/05/06 07:43:02;;;;;;;7.10;4.90;;;19.30;63.90;;;;;;5128118;27;45345;-83
2022/05/06 07:45:29;;;;;;;7.70;4.22;;;19.30;64.10;;;;;;5123918;27;45259;-82
2022/05/06 07:47:56;;;;;;;10.65;5.20;;;19.30;64.00;;;;;;5128687;27;45198;-82
2022/05/06 07:50:23;;;;;;;6.38;4.22;;;19.30;64.20;;;;;;5119865;27;45120;-82
2022/05/06 07:52:50;;;;;;;6.55;4.45;;;19.30;64.30;;;;;;5126333;27;48505;-82
2022/05/06 07:55:19;;;;;;;7.85;4.70;;;19.30;64.50;;;;;;5127942;27;45395;-83
2022/05/06 07:57:46;;;;;;;8.02;4.90;;;19.20;64.50;;;;;;5119123;27;45228;-83
2022/05/06 08:00:19;;;;;;;8.45;5.70;;;19.20;64.70;;;;;;5128198;27;45257;-82
2022/05/06 08:05:32;;;;;;;7.15;5.03;;;19.30;64.80;;;;;;5127590;27;45162;-83
2022/05/06 08:07:59;;;;;;;6.72;4.97;;;19.20;65.00;;;;;;5116343;27;45271;-82
2022/05/06 08:10:26;;;;;;;6.45;5.15;;;19.30;65.10;;;;;;5119019;27;45271;-83
2022/05/06 08:12:53;;;;;;;6.93;5.05;;;19.30;65.10;;;;;;5123622;27;47144;-83
2022/05/06 08:15:21;;;;;;;6.97;4.97;;;19.30;65.10;;;;;;5126443;27;45334;-83
2022/05/06 08:17:49;;;;;;;7.68;5.15;;;19.30;65.00;;;;;;5120282;27;45483;-82
2022/05/06 08:20:16;;;;;;;8.13;4.90;;;19.30;65.10;;;;;;5127591;27;45390;-83
2022/05/06 08:22:43;;;;;;;8.20;5.10;;;19.30;65.00;;;;;;5128192;27;47338;-83
2022/05/06 08:25:11;;;;;;;7.50;4.60;;;19.30;66.10;;;;;;5125781;27;45537;-82
2022/05/06 08:27:38;;;;;;;7.35;4.72;;;19.30;65.00;;;;;;5125192;27;45249;-81
2022/05/06 08:30:07;;;;;;;6.65;4.57;;;19.30;65.10;;;;;;5125588;27;45210;-82
2022/05/06 08:32:37;;;;;;;8.98;5.03;;;19.30;65.10;;;;;;5128118;27;46465;-83
2022/05/06 08:35:04;;;;;;;7.47;5.32;;;19.30;66.10;;;;;;5118446;27;45344;-82
2022/05/06 08:37:40;;;;;;;9.27;6.15;;;19.30;66.30;;;;;;5118276;27;45319;-81
2022/05/06 08:40:09;;;;;;;10.85;6.03;;;19.30;66.40;;;;;;5124902;27;45411;-82
2022/05/06 08:42:35;;;;;;;10.98;6.07;;;19.30;66.80;;;;;;5124817;27;46527;-83
2022/05/06 08:53:17;;;;;;;8.30;5.60;;;19.30;66.40;;;;;;5123829;27;45157;-82
2022/05/06 08:55:44;;;;;;;10.18;5.50;;;19.30;66.40;;;;;;5119611;27;45356;-80
2022/05/06 08:58:12;;;;;;;8.10;5.72;;;19.30;66.30;;;;;;5120487;27;45297;-81
2022/05/06 09:00:38;;;;;;;7.57;5.47;;;19.30;66.30;;;;;;5126502;27;45561;-81
2022/05/06 09:03:07;;;;;;;8.35;5.28;;;19.40;66.20;;;;;;5121769;27;45225;-82
2022/05/06 09:05:47;;;;;;;8.23;5.72;;;19.40;66.10;;;;;;5131748;27;45448;-82
2022/05/06 09:08:14;;;;;;;8.02;5.18;;;19.40;66.40;;;;;;5120622;27;45307;-81
2022/05/06 09:10:41;;;;;;;6.60;4.82;;;19.40;66.10;;;;;;5123490;27;45296;-81
2022/05/06 09:13:08;;;;;;;7.57;4.85;;;19.30;66.30;;;;;;5129298;27;47152;-82
2022/05/06 09:18:23;;;;;;;6.35;4.68;;;19.40;66.50;;;;;;5121447;27;45196;-81
2022/05/06 09:20:50;;;;;;;7.30;5.00;;;19.40;66.40;;;;;;5124228;27;45256;-81
2022/05/06 09:23:24;;;;;;;7.70;5.10;;;19.40;66.40;;;;;;5128435;27;45446;-81
2022/05/06 09:25:52;;;;;;;7.05;4.53;;;19.40;66.30;;;;;;5129921;27;45129;-81
2022/05/06 09:28:24;;;;;;;6.65;4.57;;;19.40;66.30;;;;;;5127190;27;45586;-81
2022/05/06 09:31:01;;;;;;;6.55;4.75;;;19.40;66.30;;;;;;5131068;27;45207;-82
2022/05/06 09:33:31;;;;;;;7.95;5.38;;;19.30;66.30;;;;;;5122429;27;47111;-82
2022/05/06 09:35:58;;;;;;;8.02;4.78;;;19.40;66.20;;;;;;5130814;27;45222;-82
2022/05/06 09:38:29;;;;;;;6.38;4.63;;;19.40;66.00;;;;;;5119348;27;45342;-82
2022/05/06 09:40:56;;;;;;;6.82;4.50;;;19.50;65.70;;;;;;5129432;27;45348;-82
2022/05/06 09:43:26;;;;;;;7.82;4.75;;;19.50;65.60;;;;;;5121347;27;47342;-83
2022/05/06 09:45:53;;;;;;;7.07;4.72;;;19.50;65.40;;;;;;5128646;27;45245;-82
2022/05/06 09:48:20;;;;;;;6.65;4.30;;;19.50;65.40;;;;;;5126039;27;45242;-82
2022/05/06 09:50:49;;;;;;;6.75;4.88;;;19.50;65.20;;;;;;5131184;27;45136;-82
2022/05/06 09:53:18;;;;;;;12.40;4.70;;;19.50;65.50;;;;;;5129727;27;45405;-87
2022/05/06 09:55:47;;;;;;;28.65;6.00;;;20.80;67.90;;;;;;5126520;27;46152;-86
2022/05/06 09:58:15;;;;;;;9.75;5.05;;;19.50;66.10;;;;;;5116855;27;45452;-85
2022/05/06 10:00:43;;;;;;;8.38;5.25;;;19.50;66.10;;;;;;5125010;27;45554;-85
2022/05/06 10:03:11;;;;;;;8.60;4.50;;;19.60;65.60;;;;;;5129225;27;47440;-85
2022/05/06 10:05:38;;;;;;;6.70;4.50;;;19.50;66.10;;;;;;5124211;27;45345;-86
2022/05/06 10:08:13;;;;;;;7.03;4.25;;;20.10;66.80;;;;;;5126585;27;45269;-84
2022/05/06 10:10:45;;;;;;;9.20;4.80;;;19.50;65.90;;;;;;5113047;27;45292;-85
2022/05/06 10:13:16;;;;;;;7.38;4.75;;;19.50;66.10;;;;;;5115019;27;48008;-84
2022/05/06 10:15:47;;;;;;;7.22;4.82;;;19.50;66.80;;;;;;5120053;27;45207;-83
2022/05/06 10:18:32;;;;;;;7.85;4.97;;;19.60;66.70;;;;;;5121773;27;45568;-84
2022/05/06 10:21:00;;;;;;;13.95;4.97;;;19.60;66.90;;;;;;5123876;27;45332;-85
2022/05/06 10:23:51;;;;;;;7.70;5.18;;;19.60;66.20;;;;;;5119369;27;47731;-85
2022/05/06 10:26:45;;;;;;;7.82;5.18;;;19.60;66.20;;;;;;5123213;27;45895;-85
2022/05/06 10:32:53;;;;;;;8.82;5.30;;;19.70;66.40;;;;;;5120737;27;45363;-86
2022/05/06 10:35:36;;;;;;;7.85;4.60;;;19.60;66.40;;;;;;5125841;27;47571;-87
2022/05/06 10:38:19;;;;;;;8.27;5.63;;;19.80;67.00;;;;;;5126850;27;45294;-86
2022/05/06 10:40:57;;;;;;;8.57;5.05;;;19.60;66.10;;;;;;5129636;27;45348;-86
2022/05/06 10:43:52;;;;;;;6.63;4.60;;;19.60;66.10;;;;;;5116451;27;45137;-85
2022/05/06 10:46:33;;;;;;;8.45;5.80;;;19.60;66.10;;;;;;5125323;27;47935;-85
2022/05/06 10:49:51;;;;;;;8.38;5.35;;;19.80;66.70;;;;;;5122683;27;45264;-84
2022/05/06 10:52:40;;;;;;;7.90;5.55;;;19.50;66.40;;;;;;5111353;27;45309;-85
2022/05/06 10:55:06;;;;;;;7.63;5.45;;;19.60;66.50;;;;;;5127837;27;45322;-85
2022/05/06 10:57:50;;;;;;;9.18;5.97;;;19.50;67.20;;;;;;5121966;27;46368;-84
2022/05/06 11:00:17;;;;;;;11.15;6.50;;;19.50;66.40;;;;;;5128384;27;45594;-85
2022/05/06 11:02:45;;;;;;;8.20;5.40;;;19.50;66.30;;;;;;5124449;27;45389;-84
2022/05/06 11:05:14;;;;;;;9.18;5.88;;;20.30;67.50;;;;;;5116876;27;45285;-85
2022/05/06 11:07:42;;;;;;;7.47;4.68;;;19.50;66.20;;;;;;5127528;27;48872;-85
2022/05/06 11:10:10;;;;;;;8.98;5.22;;;19.50;67.00;;;;;;5127781;27;45455;-85
2022/05/06 11:12:40;;;;;;;7.90;4.95;;;19.70;67.20;;;;;;5122521;27;45252;-85
2022/05/06 11:15:09;;;;;;;7.45;5.32;;;20.30;67.70;;;;;;5126955;27;45294;-85
2022/05/06 11:17:37;;;;;;;8.40;5.45;;;19.50;67.10;;;;;;5125769;27;46821;-85
2022/05/06 11:20:14;;;;;;;8.88;5.10;;;20.30;68.40;;;;;;5125973;27;45171;-85
2022/05/06 11:22:50;;;;;;;8.32;5.18;;;19.50;67.00;;;;;;5128624;27;45244;-85
2022/05/06 11:25:17;;;;;;;7.97;4.95;;;19.50;66.90;;;;;;5117366;27;45302;-85
2022/05/06 11:27:46;;;;;;;7.78;4.95;;;19.40;66.90;;;;;;5127485;27;47057;-85
2022/05/06 11:30:18;;;;;;;6.55;4.55;;;19.40;67.60;;;;;;5126781;27;46188;-85
2022/05/06 11:32:53;;;;;;;7.20;4.72;;;19.50;67.10;;;;;;5126996;27;45194;-84
2022/05/06 11:35:23;;;;;;;6.68;4.78;;;19.40;66.40;;;;;;5118611;27;45389;-85
2022/05/06 11:37:50;;;;;;;5.25;4.13;;;19.80;66.90;;;;;;5129006;27;46720;-84
2022/05/06 11:40:36;;;;;;;7.88;4.78;;;19.50;68.50;;;;;;5141179;27;45351;-85
2022/05/06 11:43:06;;;;;;;6.80;4.70;;;19.40;66.70;;;;;;5146179;27;45136;-84
2022/05/06 11:48:21;;;;;;;6.03;4.32;;;19.50;67.40;;;;;;5142937;27;45364;-84
2022/05/06 11:50:53;;;;;;;6.43;4.47;;;19.50;67.00;;;;;;5144945;27;47676;-85
2022/05/06 11:53:21;;;;;;;7.32;4.70;;;19.30;66.70;;;;;;5145952;27;45210;-85
2022/05/06 11:55:51;;;;;;;7.53;5.05;;;19.40;67.20;;;;;;5138989;27;46138;-92
2022/05/06 11:58:18;;;;;;;6.70;4.18;;;19.40;67.50;;;;;;5142410;27;46271;-84
2022/05/06 12:00:46;;;;;;;8.98;4.68;;;19.50;70.80;;;;;;5140575;27;45306;-85
2022/05/06 12:03:14;;;;;;;10.25;4.72;;;19.50;71.50;;;;;;5135815;27;45250;-85
2022/05/06 12:05:42;;;;;;;11.63;4.85;;;19.60;73.20;;;;;;5139214;27;45350;-85
2022/05/06 12:08:09;;;;;;;7.97;4.05;;;19.90;73.00;;;;;;5146200;27;45288;-84
2022/05/06 12:10:38;;;;;;;6.90;4.30;;;20.10;72.80;;;;;;5140601;27;48240;-84
2022/05/06 12:13:10;;;;;;;5.57;3.80;;;21.20;72.90;;;;;;5140401;27;45287;-84
2022/05/06 12:15:38;;;;;;;7.90;4.28;;;21.00;72.50;;;;;;5144351;27;45188;-84
2022/05/06 12:18:07;;;;;;;6.03;3.83;;;20.80;72.70;;;;;;5147784;27;45940;-84
2022/05/06 12:20:36;;;;;;;8.23;4.15;;;21.00;73.50;;;;;;5145675;27;45431;-84
2022/05/06 12:23:03;;;;;;;6.10;3.72;;;21.20;73.60;;;;;;5141263;27;45529;-84
2022/05/06 12:25:31;;;;;;;6.15;4.13;;;21.40;74.60;;;;;;5142046;27;45231;-85
2022/05/06 12:28:08;;;;;;;5.72;3.70;;;21.90;76.10;;;;;;5144604;27;45335;-86
2022/05/06 12:30:36;;;;;;;7.90;4.13;;;21.70;74.30;;;;;;5140810;27;45261;-85
2022/05/06 12:33:07;;;;;;;8.45;3.95;;;21.80;75.80;;;;;;5137862;27;45195;-85
2022/05/06 12:35:56;;;;;;;6.45;3.70;;;21.90;74.90;;;;;;5138716;27;45327;-86
2022/05/06 12:38:22;;;;;;;6.22;3.90;;;21.90;75.60;;;;;;5140973;27;45452;-85
2022/05/06 12:40:50;;;;;;;8.02;4.32;;;22.60;75.10;;;;;;5144550;27;47178;-86
2022/05/06 12:43:26;;;;;;;6.82;3.92;;;22.00;75.50;;;;;;5139902;27;45677;-85
2022/05/06 12:45:54;;;;;;;6.80;3.90;;;22.00;75.40;;;;;;5145128;27;45285;-85
2022/05/06 12:51:18;;;;;;;5.93;3.92;;;22.10;75.30;;;;;;5091169;27;45443;-85
2022/05/06 12:53:44;;;;;;;5.13;3.70;;;23.00;75.50;;;;;;5114432;27;46044;-85
2022/05/06 12:56:20;;;;;;;7.40;3.42;;;22.10;74.30;;;;;;5128694;27;45318;-85
2022/05/06 12:58:48;;;;;;;5.95;3.58;;;22.10;74.50;;;;;;5123661;27;45669;-85
2022/05/06 13:01:15;;;;;;;6.03;3.70;;;22.00;73.80;;;;;;5129821;27;47409;-84
2022/05/06 13:03:42;;;;;;;8.45;4.30;;;21.90;74.50;;;;;;5128579;27;45326;-85
2022/05/06 13:06:10;;;;;;;7.00;3.83;;;21.50;73.00;;;;;;5127321;27;45225;-85
2022/05/06 13:08:37;;;;;;;6.80;4.28;;;21.10;74.30;;;;;;5124994;27;45271;-85
2022/05/06 13:11:04;;;;;;;7.28;3.78;;;20.90;74.00;;;;;;5126492;27;47360;-85
2022/05/06 13:13:31;;;;;;;8.23;4.03;;;20.70;75.20;;;;;;5124424;27;45285;-85
2022/05/06 13:15:59;;;;;;;7.75;4.40;;;20.50;75.30;;;;;;5128117;27;45178;-85
2022/05/06 13:18:26;;;;;;;6.65;4.25;;;20.70;75.60;;;;;;5128387;27;45514;-85
2022/05/06 13:20:53;;;;;;;5.97;3.97;;;20.30;75.00;;;;;;5122663;27;47638;-85
2022/05/06 13:23:20;;;;;;;5.80;3.85;;;20.30;75.40;;;;;;5115301;27;45333;-86
2022/05/06 13:25:48;;;;;;;9.90;4.82;;;21.10;76.60;;;;;;5128571;27;45369;-84
2022/05/06 13:28:16;;;;;;;7.15;4.53;;;20.20;78.10;;;;;;5126611;27;45517;-88
2022/05/06 13:30:43;;;;;;;6.75;3.67;;;20.20;78.60;;;;;;5129383;27;48307;-87
2022/05/06 13:33:11;;;;;;;6.55;3.53;;;21.00;77.80;;;;;;5127895;27;45335;-87
2022/05/06 13:35:38;;;;;;;5.20;3.42;;;20.20;77.30;;;;;;5130599;27;45180;-88
2022/05/06 13:38:05;;;;;;;6.88;3.90;;;20.30;76.40;;;;;;5130033;27;45154;-88
2022/05/06 13:40:35;;;;;;;8.95;3.78;;;20.10;76.40;;;;;;5126698;27;47068;-86
2022/05/06 13:43:02;;;;;;;15.98;3.92;;;20.10;76.50;;;;;;5127887;27;45434;-86